Terminal Aerodrome Forecast
Issued by NWS Cleveland, OH

Home | Current Version | Previous Version | Graphics & Text | Print | Product List | Glossary Off
Versions: 1 2 3 4 5 6 7 8 9 10 11 12 13 14 15 16 17 18 19 20 21 22 23 24 25 26 27

079
FTUS41 KCLE 070139 CCA
TAFCLE
TAF COR
KCLE 070139Z 0700/0806 25008KT 5SM BR OVC008
     FM070200 26012G20KT P6SM OVC015
      TEMPO 0702/0705 OVC008
     FM070500 25015G25KT P6SM OVC025
     FM071400 24012KT P6SM SCT025 OVC100=

USA.gov is the U.S. government's official web portal to all federal, state and local government web resources and services.